createdAt,value
2022-10-04T00:02:34.171Z,80.45
2022-10-04T00:05:07.989Z,80.28
2022-10-04T00:07:42.808Z,80.58
2022-10-04T00:10:20.760Z,80.76
2022-10-04T00:12:51.687Z,80.38
2022-10-04T00:15:23.292Z,80.50
2022-10-04T00:18:05.698Z,80.66
2022-10-04T00:21:03.371Z,80.42
2022-10-04T00:23:48.041Z,80.33
2022-10-04T00:27:09.704Z,80.45
2022-10-04T00:29:40.317Z,81.00
2022-10-04T00:32:28.683Z,80.66
2022-10-04T00:34:57.931Z,80.95
2022-10-04T00:37:27.150Z,80.54
2022-10-04T00:40:05.387Z,81.03
2022-10-04T00:42:42.926Z,80.65
2022-10-04T00:45:29.631Z,80.64
2022-10-04T00:48:04.797Z,81.17
2022-10-04T00:50:38.470Z,81.04
2022-10-04T00:53:17.731Z,80.68
2022-10-04T00:55:52.925Z,81.20
2022-10-04T00:58:25.276Z,80.81
2022-10-04T01:00:55.396Z,80.72
2022-10-04T01:03:31.617Z,81.45
2022-10-04T01:06:05.543Z,81.43
2022-10-04T01:08:35.818Z,81.46
2022-10-04T01:11:11.998Z,80.97
2022-10-04T01:13:42.343Z,81.66
2022-10-04T01:16:16.389Z,80.99
2022-10-04T01:18:44.747Z,80.80
2022-10-04T01:21:27.267Z,80.97
2022-10-04T01:24:22.496Z,81.67
2022-10-04T01:26:50.639Z,81.49
2022-10-04T01:29:24.845Z,81.65
2022-10-04T01:31:54.788Z,81.34
2022-10-04T01:34:25.167Z,81.19
2022-10-04T01:36:55.860Z,81.89
2022-10-04T01:39:27.097Z,81.29
2022-10-04T01:42:00.343Z,81.49
2022-10-04T01:44:35.664Z,81.45
2022-10-04T01:47:07.669Z,81.88
2022-10-04T01:49:39.743Z,81.40
2022-10-04T01:52:12.417Z,81.47
2022-10-04T01:54:46.071Z,81.77
2022-10-04T01:57:18.099Z,81.94
2022-10-04T01:59:50.809Z,81.32
2022-10-04T02:02:24.245Z,81.37
2022-10-04T02:04:55.825Z,81.52
2022-10-04T02:07:26.696Z,81.27
2022-10-04T02:09:59.717Z,82.07
2022-10-04T02:12:31.730Z,81.54
2022-10-04T02:15:02.319Z,81.34
2022-10-04T02:17:33.933Z,82.04
2022-10-04T02:20:03.647Z,81.60
2022-10-04T02:22:32.134Z,81.99
2022-10-04T02:25:02.080Z,81.90
2022-10-04T02:27:31.413Z,82.32
2022-10-04T02:30:03.557Z,81.93
2022-10-04T02:32:51.326Z,81.91
2022-10-04T02:35:20.582Z,82.15
2022-10-04T02:37:52.993Z,82.24
2022-10-04T02:40:30.322Z,82.31
2022-10-04T02:43:03.039Z,82.42
2022-10-04T02:45:44.645Z,82.51
2022-10-04T02:48:28.651Z,82.17
2022-10-04T02:51:02.338Z,82.70
2022-10-04T02:53:37.991Z,81.93
2022-10-04T02:56:07.615Z,82.22
2022-10-04T02:58:42.159Z,82.15
2022-10-04T03:01:18.979Z,82.29
2022-10-04T03:03:48.429Z,82.27
2022-10-04T03:06:20.323Z,82.75
2022-10-04T03:08:51.399Z,81.90
2022-10-04T03:11:23.722Z,82.24
2022-10-04T03:13:55.331Z,82.36
2022-10-04T03:16:23.790Z,82.20
2022-10-04T03:18:54.490Z,82.18
2022-10-04T03:21:24.231Z,82.31
2022-10-04T03:23:53.776Z,82.91
2022-10-04T03:26:30.248Z,82.22
2022-10-04T03:28:58.995Z,82.86
2022-10-04T03:31:28.823Z,82.57
2022-10-04T03:33:59.057Z,82.65
2022-10-04T03:36:28.526Z,82.97
2022-10-04T03:38:58.439Z,82.90
2022-10-04T03:41:28.102Z,82.49
2022-10-04T03:43:59.445Z,82.44
2022-10-04T03:46:31.366Z,82.68
2022-10-04T03:49:00.743Z,82.55
2022-10-04T03:51:28.757Z,82.75
2022-10-04T03:54:00.499Z,82.45
2022-10-04T03:56:32.329Z,83.12
2022-10-04T03:59:03.501Z,82.84
2022-10-04T04:01:38.829Z,82.96
2022-10-04T04:04:19.292Z,82.83
2022-10-04T04:06:56.049Z,82.61
2022-10-04T04:09:34.906Z,83.08
2022-10-04T04:12:11.270Z,82.68
2022-10-04T04:14:42.265Z,82.90
2022-10-04T04:17:32.897Z,82.58
2022-10-04T04:20:07.685Z,82.50
2022-10-04T04:22:37.465Z,83.23
2022-10-04T04:25:18.351Z,83.19
2022-10-04T04:27:50.378Z,82.78
2022-10-04T04:30:20.149Z,82.85
2022-10-04T04:32:52.653Z,82.74
2022-10-04T04:35:26.526Z,83.30
2022-10-04T04:38:07.089Z,83.08
2022-10-04T04:40:35.334Z,83.17
2022-10-04T04:43:05.037Z,82.80
2022-10-04T04:45:35.947Z,82.56
2022-10-04T04:48:04.731Z,83.35
2022-10-04T04:50:36.357Z,82.72
2022-10-04T04:53:09.957Z,83.15
2022-10-04T04:56:02.192Z,83.03
2022-10-04T04:58:35.478Z,83.25
2022-10-04T05:01:07.902Z,82.96
2022-10-04T05:03:36.571Z,83.24
2022-10-04T05:06:05.151Z,83.07
2022-10-04T05:08:41.062Z,83.31
2022-10-04T05:11:16.502Z,83.43
2022-10-04T05:13:50.532Z,82.91
2022-10-04T05:16:23.451Z,82.96
2022-10-04T05:18:58.457Z,82.97
2022-10-04T05:21:29.946Z,82.82
2022-10-04T05:23:59.857Z,82.85
2022-10-04T05:26:31.646Z,83.16
2022-10-04T05:29:09.029Z,83.08
2022-10-04T05:31:46.598Z,83.24
2022-10-04T05:34:23.421Z,83.23
2022-10-04T05:37:13.279Z,83.38
2022-10-04T05:39:46.734Z,83.56
2022-10-04T05:42:23.187Z,83.41
2022-10-04T05:44:54.300Z,83.60
2022-10-04T05:47:25.128Z,83.49
2022-10-04T05:49:57.633Z,83.57
2022-10-04T05:52:31.146Z,83.38
2022-10-04T05:55:38.769Z,83.93
2022-10-04T05:58:28.041Z,83.81
2022-10-04T06:01:22.036Z,83.36
2022-10-04T06:04:08.981Z,83.40
2022-10-04T06:06:42.451Z,83.97
2022-10-04T06:09:17.829Z,83.55
2022-10-04T06:12:01.927Z,83.75
2022-10-04T06:14:54.965Z,84.06
2022-10-04T06:17:41.083Z,84.12
2022-10-04T06:20:34.174Z,83.93
2022-10-04T06:23:07.189Z,84.24
2022-10-04T06:25:39.658Z,83.98
2022-10-04T06:28:18.656Z,83.73
2022-10-04T06:31:06.013Z,84.04
2022-10-04T06:33:52.373Z,83.58
2022-10-04T06:36:43.934Z,83.28
2022-10-04T06:39:42.209Z,83.70
2022-10-04T06:42:35.032Z,83.75
2022-10-04T06:45:22.799Z,83.72
2022-10-04T06:48:08.918Z,83.82
2022-10-04T06:50:48.725Z,83.68
2022-10-04T06:53:27.619Z,83.77
2022-10-04T06:56:16.548Z,84.09
2022-10-04T06:59:25.949Z,84.25
2022-10-04T07:01:59.140Z,84.40
2022-10-04T07:05:03.219Z,84.39
2022-10-04T07:07:37.279Z,84.29
2022-10-04T07:10:23.763Z,84.18
2022-10-04T07:13:12.891Z,84.54
2022-10-04T07:15:52.307Z,84.18
2022-10-04T07:18:29.177Z,84.88
2022-10-04T07:21:03.930Z,84.66
2022-10-04T07:23:40.137Z,84.64
2022-10-04T07:26:21.833Z,84.71
2022-10-04T07:29:08.656Z,84.59
2022-10-04T07:31:38.248Z,84.50
2022-10-04T07:34:12.083Z,84.64
2022-10-04T07:36:46.590Z,84.44
2022-10-04T07:39:18.836Z,84.63
2022-10-04T07:41:52.533Z,84.81
2022-10-04T07:44:31.309Z,84.89
2022-10-04T07:47:04.041Z,84.82
2022-10-04T07:49:39.068Z,84.86
2022-10-04T07:52:21.616Z,84.74
2022-10-04T07:54:59.389Z,84.59
2022-10-04T07:57:40.239Z,84.47
2022-10-04T08:00:17.490Z,84.61
2022-10-04T08:03:10.956Z,84.62
2022-10-04T08:05:43.404Z,84.66
2022-10-04T08:08:30.879Z,84.40
2022-10-04T08:11:21.326Z,84.43
2022-10-04T08:14:01.623Z,84.28
2022-10-04T08:16:38.859Z,84.09
2022-10-04T08:19:25.463Z,84.03
2022-10-04T08:22:01.799Z,83.97
2022-10-04T08:24:39.952Z,83.97
2022-10-04T08:27:32.130Z,83.76
2022-10-04T08:30:10.556Z,83.70
2022-10-04T08:32:52.982Z,83.41
2022-10-04T08:35:39.967Z,83.41
2022-10-04T08:38:27.938Z,83.49
2022-10-04T08:41:46.573Z,83.29
2022-10-04T08:44:50.265Z,83.24
2022-10-04T08:47:46.000Z,83.01
2022-10-04T08:50:44.625Z,82.82
2022-10-04T08:53:48.542Z,82.76
2022-10-04T08:56:25.674Z,82.63
2022-10-04T08:59:13.127Z,82.25
2022-10-04T09:02:09.234Z,82.38
2022-10-04T09:05:09.871Z,81.96
2022-10-04T09:08:11.966Z,81.90
2022-10-04T09:10:51.127Z,81.75
2022-10-04T09:13:49.508Z,81.50
2022-10-04T09:16:19.405Z,81.43
2022-10-04T09:18:53.675Z,81.00
2022-10-04T09:21:31.135Z,81.17
2022-10-04T09:24:50.858Z,80.81
2022-10-04T09:27:55.120Z,80.79
2022-10-04T09:30:31.226Z,80.56
2022-10-04T09:33:24.082Z,80.23
2022-10-04T09:36:18.821Z,80.19
2022-10-04T09:39:28.888Z,79.90
2022-10-04T09:42:16.611Z,79.63
2022-10-04T09:45:11.128Z,79.59
2022-10-04T09:48:00.565Z,79.18
2022-10-04T09:50:58.646Z,78.97
2022-10-04T09:53:42.400Z,78.71
2022-10-04T09:56:37.895Z,78.29
2022-10-04T09:59:36.828Z,78.28
2022-10-04T10:02:29.154Z,77.91
2022-10-04T10:05:20.005Z,77.66
2022-10-04T10:07:52.381Z,77.47
2022-10-04T10:10:48.418Z,77.37
2022-10-04T10:13:43.333Z,76.70
2022-10-04T10:16:35.105Z,76.57
2022-10-04T10:19:21.518Z,75.89
2022-10-04T10:22:02.998Z,75.44
2022-10-04T10:25:08.547Z,75.60
2022-10-04T10:28:05.987Z,74.93
2022-10-04T10:30:52.945Z,74.47
2022-10-04T10:33:43.751Z,74.04
2022-10-04T10:36:27.098Z,73.79
2022-10-04T10:39:33.396Z,73.37
2022-10-04T10:42:33.528Z,72.74
2022-10-04T10:45:23.026Z,72.81
2022-10-04T10:48:01.751Z,72.16
2022-10-04T10:51:00.982Z,71.68
2022-10-04T10:54:07.525Z,71.13
2022-10-04T10:57:06.506Z,70.76
2022-10-04T11:00:14.133Z,70.38
2022-10-04T11:03:22.753Z,70.04
2022-10-04T11:06:25.306Z,69.45
2022-10-04T11:09:39.104Z,69.15
2022-10-04T11:12:40.200Z,68.49
2022-10-04T11:15:49.622Z,68.15
2022-10-04T11:18:47.745Z,67.59
2022-10-04T11:21:43.385Z,67.54
2022-10-04T11:24:52.682Z,67.19
2022-10-04T11:27:38.145Z,66.68
2022-10-04T11:30:15.647Z,66.41
2022-10-04T11:33:17.417Z,66.06
2022-10-04T11:36:31.434Z,65.42
2022-10-04T11:39:35.820Z,65.35
2022-10-04T11:42:18.645Z,64.96
2022-10-04T11:45:14.744Z,64.88
2022-10-04T11:48:02.523Z,64.28
2022-10-04T11:50:40.305Z,63.85
2022-10-04T11:53:40.708Z,63.95
2022-10-04T11:56:34.221Z,63.37
2022-10-04T11:59:34.079Z,63.47
2022-10-04T12:02:32.415Z,63.23
2022-10-04T12:05:19.867Z,62.88
2022-10-04T12:07:58.412Z,62.51
2022-10-04T12:10:31.147Z,62.25
2022-10-04T12:13:26.424Z,61.93
2022-10-04T12:16:11.776Z,61.61
2022-10-04T12:19:01.866Z,61.31
2022-10-04T12:21:59.087Z,61.64
2022-10-04T12:24:58.382Z,61.13
2022-10-04T12:27:49.999Z,61.24
2022-10-04T12:30:24.877Z,60.60
2022-10-04T12:33:03.476Z,60.93
2022-10-04T12:35:44.308Z,60.50
2022-10-04T12:38:26.747Z,60.17
2022-10-04T12:41:03.320Z,60.28
2022-10-04T12:43:38.529Z,59.84
2022-10-04T12:46:22.726Z,60.14
2022-10-04T12:49:12.066Z,59.94
2022-10-04T12:51:54.076Z,59.55
2022-10-04T12:54:33.655Z,59.16
2022-10-04T12:57:22.440Z,59.31
2022-10-04T12:59:59.241Z,58.98
2022-10-04T13:02:44.789Z,58.68
2022-10-04T13:05:22.251Z,58.61
2022-10-04T13:08:28.345Z,58.36
2022-10-04T13:11:13.578Z,58.09
2022-10-04T13:14:10.973Z,58.19
2022-10-04T13:19:53.913Z,57.46
2022-10-04T13:22:55.825Z,57.64
2022-10-04T13:25:33.624Z,57.38
2022-10-04T13:28:06.527Z,57.25
2022-10-04T13:30:46.356Z,57.13
2022-10-04T13:33:26.992Z,56.92
2022-10-04T13:36:05.941Z,56.74
2022-10-04T13:39:15.899Z,56.55
2022-10-04T13:42:11.439Z,56.44
2022-10-04T13:45:10.455Z,56.55
2022-10-04T13:48:03.323Z,56.34
2022-10-04T13:50:44.393Z,56.46
2022-10-04T13:53:50.663Z,56.12
2022-10-04T13:56:52.135Z,55.99
2022-10-04T13:59:33.671Z,55.75
2022-10-04T14:02:42.160Z,55.40
2022-10-04T14:05:45.321Z,55.50
2022-10-04T14:08:44.791Z,55.24
2022-10-04T14:11:39.117Z,55.17
2022-10-04T14:15:00.281Z,54.99
2022-10-04T14:18:11.643Z,54.78
2022-10-04T14:21:24.877Z,54.81
2022-10-04T14:24:33.656Z,54.57
2022-10-04T14:27:31.022Z,54.18
2022-10-04T14:30:19.022Z,53.74
2022-10-04T14:33:15.595Z,53.70
2022-10-04T14:35:53.329Z,53.88
2022-10-04T14:38:52.586Z,53.40
2022-10-04T14:41:56.134Z,53.11
2022-10-04T14:44:56.533Z,52.70
2022-10-04T14:47:49.406Z,52.96
2022-10-04T14:50:29.319Z,52.63
2022-10-04T14:53:13.030Z,52.39
2022-10-04T14:56:18.244Z,52.12
2022-10-04T14:59:00.417Z,51.65
2022-10-04T15:01:40.433Z,51.43
2022-10-04T15:04:26.552Z,51.19
2022-10-04T15:07:01.322Z,51.05
2022-10-04T15:09:51.335Z,50.79
2022-10-04T15:13:09.860Z,50.59
2022-10-04T15:15:59.162Z,50.52
2022-10-04T15:18:49.299Z,50.34
2022-10-04T15:21:46.638Z,50.18
2022-10-04T15:24:25.717Z,50.05
2022-10-04T15:27:38.713Z,49.77
2022-10-04T15:30:36.024Z,49.87
2022-10-04T15:33:25.568Z,49.51
2022-10-04T15:36:15.603Z,49.55
2022-10-04T15:38:50.941Z,49.54
2022-10-04T15:41:23.033Z,49.37
2022-10-04T15:44:31.930Z,49.16
2022-10-04T15:47:15.513Z,48.97
2022-10-04T15:50:06.266Z,49.09
2022-10-04T15:52:50.437Z,49.10
2022-10-04T15:55:27.564Z,49.02
2022-10-04T15:58:17.448Z,49.12
2022-10-04T16:01:07.758Z,48.69
2022-10-04T16:03:47.183Z,48.96
2022-10-04T16:06:24.561Z,48.75
2022-10-04T16:09:13.982Z,48.64
2022-10-04T16:12:06.820Z,48.36
2022-10-04T16:14:47.815Z,48.58
2022-10-04T16:17:45.708Z,48.86
2022-10-04T16:20:48.368Z,48.20
2022-10-04T16:23:28.232Z,48.61
2022-10-04T16:25:57.183Z,48.61
2022-10-04T16:28:48.946Z,48.58
2022-10-04T16:31:29.576Z,48.36
2022-10-04T16:34:03.395Z,48.08
2022-10-04T16:36:48.365Z,48.35
2022-10-04T16:42:17.885Z,47.98
2022-10-04T16:44:51.869Z,47.94
2022-10-04T16:47:27.236Z,48.34
2022-10-04T16:49:57.319Z,48.41
2022-10-04T16:52:48.584Z,48.42
2022-10-04T16:55:31.540Z,48.43
2022-10-04T16:58:41.575Z,48.40
2022-10-04T17:02:00.298Z,48.46
2022-10-04T17:05:00.818Z,48.19
2022-10-04T17:07:41.382Z,48.86
2022-10-04T17:10:21.323Z,48.24
2022-10-04T17:12:56.592Z,48.66
2022-10-04T17:15:39.098Z,48.33
2022-10-04T17:18:18.493Z,48.20
2022-10-04T17:20:57.757Z,48.79
2022-10-04T17:23:48.299Z,48.63
2022-10-04T17:26:29.334Z,48.92
2022-10-04T17:28:59.858Z,48.15
2022-10-04T17:31:38.046Z,48.86
2022-10-04T17:34:14.750Z,49.38
2022-10-04T17:36:46.434Z,49.30
2022-10-04T17:39:29.180Z,48.70
2022-10-04T17:42:07.565Z,48.77
2022-10-04T17:44:49.275Z,49.14
2022-10-04T17:47:24.855Z,49.31
2022-10-04T17:50:18.007Z,49.50
2022-10-04T17:53:21.023Z,49.35
2022-10-04T17:55:53.061Z,49.66
2022-10-04T17:58:26.173Z,49.41
2022-10-04T18:01:00.928Z,49.44
2022-10-04T18:03:38.588Z,49.63
2022-10-04T18:06:18.720Z,49.55
2022-10-04T18:08:55.913Z,49.51
2022-10-04T18:11:30.561Z,49.66
2022-10-04T18:14:04.045Z,49.73
2022-10-04T18:16:33.808Z,49.61
2022-10-04T18:19:24.580Z,50.15
2022-10-04T18:21:54.291Z,49.80
2022-10-04T18:24:30.545Z,49.99
2022-10-04T18:27:15.688Z,50.23
2022-10-04T18:30:22.863Z,50.11
2022-10-04T18:32:55.150Z,50.03
2022-10-04T18:35:27.688Z,50.31
2022-10-04T18:37:58.065Z,50.62
2022-10-04T18:40:29.701Z,50.16
2022-10-04T18:43:01.752Z,50.21
2022-10-04T18:45:31.822Z,50.71
2022-10-04T18:48:02.715Z,50.55
2022-10-04T18:50:36.837Z,50.65
2022-10-04T18:53:35.943Z,50.54
2022-10-04T18:56:09.057Z,50.70
2022-10-04T18:59:05.623Z,50.92
2022-10-04T19:02:03.612Z,51.09
2022-10-04T19:04:46.260Z,51.05
2022-10-04T19:07:17.101Z,51.25
2022-10-04T19:10:01.070Z,51.22
2022-10-04T19:12:37.274Z,51.37
2022-10-04T19:15:20.834Z,51.20
2022-10-04T19:18:02.543Z,51.51
2022-10-04T19:20:39.724Z,51.54
2022-10-04T19:23:17.746Z,51.84
2022-10-04T19:26:09.795Z,51.73
2022-10-04T19:28:40.081Z,51.89
2022-10-04T19:31:18.438Z,52.01
2022-10-04T19:33:51.475Z,51.77
2022-10-04T19:36:46.902Z,51.98
2022-10-04T19:39:39.397Z,52.09
2022-10-04T19:42:12.740Z,52.23
2022-10-04T19:45:06.912Z,52.49
2022-10-04T19:47:43.989Z,52.30
2022-10-04T19:50:21.385Z,52.34
2022-10-04T19:52:54.381Z,52.48
2022-10-04T19:55:27.703Z,52.44
2022-10-04T19:58:03.420Z,52.41
2022-10-04T20:00:36.267Z,52.65
2022-10-04T20:03:12.011Z,52.65
2022-10-04T20:05:44.711Z,52.69
2022-10-04T20:08:14.253Z,52.84
2022-10-04T20:10:43.383Z,52.78
2022-10-04T20:13:25.603Z,52.84
2022-10-04T20:15:59.802Z,52.99
2022-10-04T20:19:05.921Z,53.19
2022-10-04T20:21:34.147Z,53.22
2022-10-04T20:24:02.487Z,53.25
2022-10-04T20:26:56.823Z,53.28
2022-10-04T20:30:07.344Z,53.36
2022-10-04T20:33:00.333Z,53.42
2022-10-04T20:36:05.950Z,53.46
2022-10-04T20:38:49.031Z,53.54
2022-10-04T20:42:22.500Z,53.61
2022-10-04T20:44:57.674Z,53.96
2022-10-04T20:47:38.199Z,53.81
2022-10-04T20:50:16.429Z,53.95
2022-10-04T20:52:47.321Z,53.92
2022-10-04T20:55:28.410Z,53.81
2022-10-04T20:57:58.971Z,54.07
2022-10-04T21:00:28.105Z,54.19
2022-10-04T21:03:16.720Z,54.27
2022-10-04T21:05:59.407Z,54.23
2022-10-04T21:08:29.195Z,54.56
2022-10-04T21:11:20.244Z,54.42
2022-10-04T21:13:54.286Z,54.61
2022-10-04T21:16:45.290Z,54.59
2022-10-04T21:19:50.663Z,54.71
2022-10-04T21:22:39.631Z,54.75
2022-10-04T21:25:40.210Z,54.66
2022-10-04T21:28:41.991Z,55.15
2022-10-04T21:31:10.239Z,54.81
2022-10-04T21:33:38.326Z,54.93
2022-10-04T21:36:07.556Z,54.85
2022-10-04T21:38:37.281Z,55.23
2022-10-04T21:41:05.464Z,55.34
2022-10-04T21:43:36.141Z,55.36
2022-10-04T21:46:04.462Z,55.53
2022-10-04T21:48:32.267Z,55.40
2022-10-04T21:51:00.402Z,55.58
2022-10-04T21:53:28.547Z,55.82
2022-10-04T21:55:57.807Z,55.77
2022-10-04T21:58:25.745Z,55.58
2022-10-04T22:00:54.130Z,55.72
2022-10-04T22:03:22.121Z,55.78
2022-10-04T22:05:53.048Z,55.86
2022-10-04T22:08:21.428Z,55.81
2022-10-04T22:10:52.224Z,56.02
2022-10-04T22:13:26.554Z,55.90
2022-10-04T22:15:55.154Z,56.15
2022-10-04T22:18:23.248Z,56.19
2022-10-04T22:20:51.324Z,56.38
2022-10-04T22:23:22.274Z,56.41
2022-10-04T22:25:50.561Z,56.56
2022-10-04T22:28:23.512Z,56.32
2022-10-04T22:30:55.678Z,56.85
2022-10-04T22:33:34.965Z,56.70
2022-10-04T22:36:14.548Z,56.70
2022-10-04T22:38:45.906Z,56.83
2022-10-04T22:41:15.214Z,57.03
2022-10-04T22:43:43.428Z,56.78
2022-10-04T22:46:16.603Z,57.19
2022-10-04T22:48:45.875Z,57.12
2022-10-04T22:51:14.912Z,57.34
2022-10-04T22:53:45.069Z,57.19
2022-10-04T22:56:14.023Z,57.38
2022-10-04T22:58:42.647Z,57.29
2022-10-04T23:01:15.973Z,57.67
2022-10-04T23:03:46.540Z,57.38
2022-10-04T23:06:15.342Z,57.44
2022-10-04T23:08:43.891Z,57.47
2022-10-04T23:11:12.456Z,57.34
2022-10-04T23:13:40.650Z,57.35
2022-10-04T23:16:15.003Z,58.08
2022-10-04T23:18:44.618Z,58.02
2022-10-04T23:21:24.984Z,58.40
2022-10-04T23:23:54.639Z,58.36
2022-10-04T23:26:25.271Z,58.04
2022-10-04T23:28:53.154Z,58.47
2022-10-04T23:31:24.813Z,58.50
2022-10-04T23:33:56.856Z,58.40
2022-10-04T23:36:24.866Z,58.76
2022-10-04T23:38:57.527Z,58.57
2022-10-04T23:41:27.033Z,58.86
2022-10-04T23:43:54.973Z,58.85
2022-10-04T23:46:24.466Z,58.99
2022-10-04T23:48:52.653Z,59.10
2022-10-04T23:51:22.526Z,58.94
2022-10-04T23:53:51.199Z,59.26
2022-10-04T23:56:23.356Z,59.35
2022-10-04T23:58:52.566Z,59.30
